sensor_id;sensor_type;location;lat;lon;timestamp;pressure;altitude;pressure_sealevel;temperature;humidity
10176;BME280;18221;38.704;0.152;2022-08-11T00:08:54;98818.47;;;29.24;54.81
10176;BME280;18221;38.704;0.152;2022-08-11T00:11:33;98825.00;;;29.23;54.95
10176;BME280;18221;38.704;0.152;2022-08-11T00:14:03;98825.78;;;29.18;54.87
10176;BME280;18221;38.704;0.152;2022-08-11T00:16:32;98823.88;;;29.19;54.97
10176;BME280;18221;38.704;0.152;2022-08-11T00:19:04;98827.53;;;29.29;54.76
10176;BME280;18221;38.704;0.152;2022-08-11T00:21:41;98825.78;;;29.18;54.33
10176;BME280;18221;38.704;0.152;2022-08-11T00:24:10;98825.88;;;29.28;54.56
10176;BME280;18221;38.704;0.152;2022-08-11T00:26:47;98818.28;;;29.35;54.19
10176;BME280;18221;38.704;0.152;2022-08-11T00:29:17;98824.28;;;29.38;53.67
10176;BME280;18221;38.704;0.152;2022-08-11T00:31:49;98815.53;;;29.35;54.05
10176;BME280;18221;38.704;0.152;2022-08-11T00:34:22;98816.03;;;29.27;54.06
10176;BME280;18221;38.704;0.152;2022-08-11T00:36:55;98818.50;;;29.29;53.67
10176;BME280;18221;38.704;0.152;2022-08-11T00:39:26;98817.97;;;29.32;53.99
10176;BME280;18221;38.704;0.152;2022-08-11T00:42:15;98828.66;;;29.38;53.64
10176;BME280;18221;38.704;0.152;2022-08-11T00:45:06;98827.81;;;29.33;53.45
10176;BME280;18221;38.704;0.152;2022-08-11T00:47:52;98826.69;;;29.29;53.22
10176;BME280;18221;38.704;0.152;2022-08-11T00:50:34;98831.38;;;29.33;53.40
10176;BME280;18221;38.704;0.152;2022-08-11T00:53:35;98826.97;;;29.27;53.62
10176;BME280;18221;38.704;0.152;2022-08-11T00:56:56;98830.25;;;29.29;53.55
10176;BME280;18221;38.704;0.152;2022-08-11T01:00:03;98831.94;;;29.35;53.11
10176;BME280;18221;38.704;0.152;2022-08-11T01:03:07;98819.91;;;29.36;53.38
10176;BME280;18221;38.704;0.152;2022-08-11T01:06:25;98819.34;;;29.34;53.00
10176;BME280;18221;38.704;0.152;2022-08-11T01:09:30;98812.50;;;29.32;52.85
10176;BME280;18221;38.704;0.152;2022-08-11T01:12:43;98811.94;;;29.30;53.00
10176;BME280;18221;38.704;0.152;2022-08-11T01:15:56;98810.19;;;29.19;53.30
10176;BME280;18221;38.704;0.152;2022-08-11T01:33:49;98810.00;;;28.89;52.92
10176;BME280;18221;38.704;0.152;2022-08-11T01:47:21;98820.41;;;28.92;52.62
10176;BME280;18221;38.704;0.152;2022-08-11T01:50:20;98808.03;;;28.84;52.63
10176;BME280;18221;38.704;0.152;2022-08-11T01:53:11;98814.69;;;28.93;52.57
10176;BME280;18221;38.704;0.152;2022-08-11T01:55:57;98809.78;;;28.95;52.82
10176;BME280;18221;38.704;0.152;2022-08-11T01:58:37;98813.94;;;29.08;52.61
10176;BME280;18221;38.704;0.152;2022-08-11T02:01:31;98807.06;;;29.00;52.25
10176;BME280;18221;38.704;0.152;2022-08-11T02:04:17;98799.19;;;29.04;52.04
10176;BME280;18221;38.704;0.152;2022-08-11T02:06:54;98796.72;;;29.07;52.07
10176;BME280;18221;38.704;0.152;2022-08-11T02:09:54;98791.59;;;29.16;51.88
10176;BME280;18221;38.704;0.152;2022-08-11T02:12:43;98801.38;;;29.07;51.91
10176;BME280;18221;38.704;0.152;2022-08-11T02:15:19;98802.97;;;29.03;52.01
10176;BME280;18221;38.704;0.152;2022-08-11T02:18:05;98801.84;;;28.94;52.62
10176;BME280;18221;38.704;0.152;2022-08-11T02:20:43;98813.06;;;28.97;52.81
10176;BME280;18221;38.704;0.152;2022-08-11T02:23:40;98818.81;;;28.96;52.82
10176;BME280;18221;38.704;0.152;2022-08-11T02:26:19;98817.03;;;28.80;53.15
10176;BME280;18221;38.704;0.152;2022-08-11T02:29:12;98812.41;;;28.80;53.49
10176;BME280;18221;38.704;0.152;2022-08-11T02:31:55;98806.66;;;28.82;53.40
10176;BME280;18221;38.704;0.152;2022-08-11T02:34:54;98811.06;;;28.56;54.50
10176;BME280;18221;38.704;0.152;2022-08-11T02:37:39;98816.09;;;28.37;54.98
10176;BME280;18221;38.704;0.152;2022-08-11T02:40:23;98808.78;;;28.43;54.94
10176;BME280;18221;38.704;0.152;2022-08-11T02:43:05;98819.25;;;28.56;55.06
10176;BME280;18221;38.704;0.152;2022-08-11T02:45:49;98811.13;;;28.61;54.62
10176;BME280;18221;38.704;0.152;2022-08-11T02:48:45;98809.34;;;28.76;54.63
10176;BME280;18221;38.704;0.152;2022-08-11T02:52:01;98808.50;;;28.71;54.55
10176;BME280;18221;38.704;0.152;2022-08-11T02:54:39;98802.25;;;28.75;54.18
10176;BME280;18221;38.704;0.152;2022-08-11T02:57:20;98793.34;;;28.58;54.90
10176;BME280;18221;38.704;0.152;2022-08-11T02:59:58;98790.94;;;28.62;54.72
10176;BME280;18221;38.704;0.152;2022-08-11T03:02:46;98790.78;;;28.47;55.46
10176;BME280;18221;38.704;0.152;2022-08-11T03:05:48;98785.81;;;28.39;55.92
10176;BME280;18221;38.704;0.152;2022-08-11T03:08:43;98785.34;;;28.47;55.99
10176;BME280;18221;38.704;0.152;2022-08-11T03:11:41;98777.66;;;28.44;55.74
10176;BME280;18221;38.704;0.152;2022-08-11T03:14:42;98778.38;;;28.34;55.63
10176;BME280;18221;38.704;0.152;2022-08-11T03:17:39;98773.69;;;28.30;56.21
10176;BME280;18221;38.704;0.152;2022-08-11T03:20:30;98775.50;;;28.19;56.24
10176;BME280;18221;38.704;0.152;2022-08-11T03:23:13;98772.91;;;28.34;55.97
10176;BME280;18221;38.704;0.152;2022-08-11T03:25:52;98776.66;;;28.23;56.22
10176;BME280;18221;38.704;0.152;2022-08-11T03:28:30;98776.44;;;28.30;55.82
10176;BME280;18221;38.704;0.152;2022-08-11T03:31:22;98778.88;;;28.26;55.44
10176;BME280;18221;38.704;0.152;2022-08-11T03:34:02;98778.47;;;28.12;55.71
10176;BME280;18221;38.704;0.152;2022-08-11T03:37:21;98778.56;;;28.01;56.08
10176;BME280;18221;38.704;0.152;2022-08-11T03:40:29;98775.78;;;27.96;56.38
10176;BME280;18221;38.704;0.152;2022-08-11T03:43:49;98771.44;;;27.95;56.35
10176;BME280;18221;38.704;0.152;2022-08-11T03:46:35;98762.91;;;27.91;56.79
10176;BME280;18221;38.704;0.152;2022-08-11T03:49:30;98762.94;;;27.70;57.43
10176;BME280;18221;38.704;0.152;2022-08-11T03:52:15;98766.25;;;27.72;57.41
10176;BME280;18221;38.704;0.152;2022-08-11T03:55:07;98766.28;;;27.50;57.51
10176;BME280;18221;38.704;0.152;2022-08-11T04:01:52;98765.34;;;27.23;58.56
10176;BME280;18221;38.704;0.152;2022-08-11T04:05:37;98770.06;;;27.49;57.55
10176;BME280;18221;38.704;0.152;2022-08-11T04:15:24;98773.72;;;27.38;56.03
10176;BME280;18221;38.704;0.152;2022-08-11T04:19:03;98782.66;;;27.33;56.31
10176;BME280;18221;38.704;0.152;2022-08-11T04:22:21;98782.59;;;27.45;55.49
10176;BME280;18221;38.704;0.152;2022-08-11T04:25:36;98781.81;;;27.49;55.99
10176;BME280;18221;38.704;0.152;2022-08-11T04:28:53;98786.44;;;27.49;56.66
10176;BME280;18221;38.704;0.152;2022-08-11T04:32:00;98775.78;;;27.47;57.48
10176;BME280;18221;38.704;0.152;2022-08-11T04:35:08;98778.19;;;27.44;57.23
10176;BME280;18221;38.704;0.152;2022-08-11T04:38:17;98777.38;;;27.43;57.60
10176;BME280;18221;38.704;0.152;2022-08-11T04:48:27;98797.13;;;27.34;56.92
10176;BME280;18221;38.704;0.152;2022-08-11T04:51:53;98784.75;;;27.26;57.21
10176;BME280;18221;38.704;0.152;2022-08-11T04:55:01;98781.31;;;27.36;57.22
10176;BME280;18221;38.704;0.152;2022-08-11T04:58:12;98789.44;;;27.31;57.85
10176;BME280;18221;38.704;0.152;2022-08-11T05:01:17;98785.81;;;27.42;57.68
10176;BME280;18221;38.704;0.152;2022-08-11T05:04:22;98795.00;;;27.58;57.27
10176;BME280;18221;38.704;0.152;2022-08-11T05:11:02;98791.72;;;27.39;58.53
10176;BME280;18221;38.704;0.152;2022-08-11T05:13:42;98795.94;;;27.46;58.54
10176;BME280;18221;38.704;0.152;2022-08-11T05:16:42;98798.28;;;27.60;58.78
10176;BME280;18221;38.704;0.152;2022-08-11T05:19:32;98795.84;;;27.58;59.19
10176;BME280;18221;38.704;0.152;2022-08-11T05:22:22;98802.63;;;27.55;59.44
10176;BME280;18221;38.704;0.152;2022-08-11T05:25:17;98803.19;;;27.58;59.63
10176;BME280;18221;38.704;0.152;2022-08-11T05:28:09;98792.81;;;27.38;60.33
10176;BME280;18221;38.704;0.152;2022-08-11T05:30:59;98789.78;;;27.56;59.91
10176;BME280;18221;38.704;0.152;2022-08-11T05:33:49;98793.56;;;27.50;59.92
10176;BME280;18221;38.704;0.152;2022-08-11T05:36:44;98795.19;;;27.51;60.33
10176;BME280;18221;38.704;0.152;2022-08-11T05:39:19;98806.97;;;27.56;60.22
10176;BME280;18221;38.704;0.152;2022-08-11T05:42:08;98797.94;;;27.34;60.63
10176;BME280;18221;38.704;0.152;2022-08-11T05:45:00;98799.47;;;27.64;60.05
10176;BME280;18221;38.704;0.152;2022-08-11T05:47:52;98805.09;;;27.57;60.21
10176;BME280;18221;38.704;0.152;2022-08-11T05:50:38;98801.91;;;27.65;60.20
10176;BME280;18221;38.704;0.152;2022-08-11T05:53:25;98797.34;;;27.49;60.40
10176;BME280;18221;38.704;0.152;2022-08-11T05:56:10;98806.31;;;27.66;60.10
10176;BME280;18221;38.704;0.152;2022-08-11T05:58:49;98816.00;;;27.57;59.97
10176;BME280;18221;38.704;0.152;2022-08-11T06:01:28;98810.53;;;27.57;60.27
10176;BME280;18221;38.704;0.152;2022-08-11T06:04:02;98806.38;;;27.71;59.75
10176;BME280;18221;38.704;0.152;2022-08-11T06:06:54;98819.13;;;27.66;60.00
10176;BME280;18221;38.704;0.152;2022-08-11T06:09:33;98810.94;;;27.66;59.80
10176;BME280;18221;38.704;0.152;2022-08-11T06:12:05;98818.63;;;27.69;59.68
10176;BME280;18221;38.704;0.152;2022-08-11T06:14:41;98823.22;;;27.68;59.44
10176;BME280;18221;38.704;0.152;2022-08-11T06:17:12;98818.41;;;27.75;59.44
10176;BME280;18221;38.704;0.152;2022-08-11T06:19:41;98814.16;;;27.63;59.45
10176;BME280;18221;38.704;0.152;2022-08-11T06:22:20;98822.41;;;27.68;59.22
10176;BME280;18221;38.704;0.152;2022-08-11T06:24:55;98816.13;;;27.67;59.45
10176;BME280;18221;38.704;0.152;2022-08-11T06:27:28;98822.06;;;27.64;59.48
10176;BME280;18221;38.704;0.152;2022-08-11T06:29:57;98831.47;;;27.73;59.28
10176;BME280;18221;38.704;0.152;2022-08-11T06:32:31;98833.31;;;27.89;58.85
10176;BME280;18221;38.704;0.152;2022-08-11T06:35:11;98831.22;;;27.75;59.03
10176;BME280;18221;38.704;0.152;2022-08-11T06:37:55;98832.88;;;27.97;58.48
10176;BME280;18221;38.704;0.152;2022-08-11T06:40:36;98830.69;;;27.99;58.30
10176;BME280;18221;38.704;0.152;2022-08-11T06:43:17;98823.22;;;28.11;58.36
10176;BME280;18221;38.704;0.152;2022-08-11T06:46:02;98827.66;;;28.17;57.73
10176;BME280;18221;38.704;0.152;2022-08-11T06:48:41;98834.19;;;28.16;57.95
10176;BME280;18221;38.704;0.152;2022-08-11T06:51:11;98831.44;;;28.16;57.92
10176;BME280;18221;38.704;0.152;2022-08-11T06:53:44;98832.69;;;28.04;58.26
10176;BME280;18221;38.704;0.152;2022-08-11T06:56:14;98840.16;;;27.92;58.73
10176;BME280;18221;38.704;0.152;2022-08-11T06:59:01;98842.91;;;27.92;58.84
10176;BME280;18221;38.704;0.152;2022-08-11T07:02:14;98844.59;;;28.20;57.74
10176;BME280;18221;38.704;0.152;2022-08-11T07:04:55;98844.69;;;28.30;57.61
10176;BME280;18221;38.704;0.152;2022-08-11T07:12:01;98848.16;;;28.47;56.73
10176;BME280;18221;38.704;0.152;2022-08-11T07:14:55;98849.94;;;28.63;56.25
10176;BME280;18221;38.704;0.152;2022-08-11T07:17:47;98847.84;;;28.70;56.08
10176;BME280;18221;38.704;0.152;2022-08-11T07:20:38;98847.09;;;28.80;55.58
10176;BME280;18221;38.704;0.152;2022-08-11T07:23:25;98836.72;;;28.82;56.00
10176;BME280;18221;38.704;0.152;2022-08-11T07:26:16;98841.44;;;28.86;55.54
10176;BME280;18221;38.704;0.152;2022-08-11T07:29:02;98844.84;;;29.08;54.88
10176;BME280;18221;38.704;0.152;2022-08-11T07:31:39;98841.56;;;29.06;54.92
10176;BME280;18221;38.704;0.152;2022-08-11T07:34:18;98837.13;;;29.37;54.36
10176;BME280;18221;38.704;0.152;2022-08-11T07:36:54;98842.13;;;29.50;53.86
10176;BME280;18221;38.704;0.152;2022-08-11T07:39:30;98836.50;;;29.77;53.22
10176;BME280;18221;38.704;0.152;2022-08-11T07:42:06;98843.78;;;30.08;51.94
10176;BME280;18221;38.704;0.152;2022-08-11T07:44:36;98846.19;;;30.00;52.12
10176;BME280;18221;38.704;0.152;2022-08-11T07:47:22;98847.63;;;30.27;51.45
10176;BME280;18221;38.704;0.152;2022-08-11T07:50:11;98843.91;;;30.89;49.62
10176;BME280;18221;38.704;0.152;2022-08-11T07:53:00;98851.28;;;31.18;49.21
10176;BME280;18221;38.704;0.152;2022-08-11T07:55:30;98846.88;;;31.48;47.93
10176;BME280;18221;38.704;0.152;2022-08-11T07:58:02;98841.09;;;31.34;48.12
10176;BME280;18221;38.704;0.152;2022-08-11T08:00:55;98836.41;;;31.55;47.48
10176;BME280;18221;38.704;0.152;2022-08-11T08:03:42;98840.22;;;31.64;47.09
10176;BME280;18221;38.704;0.152;2022-08-11T08:06:31;98844.94;;;31.43;47.65
10176;BME280;18221;38.704;0.152;2022-08-11T08:09:21;98844.59;;;31.75;46.96
10176;BME280;18221;38.704;0.152;2022-08-11T08:12:08;98845.34;;;31.91;45.93
10176;BME280;18221;38.704;0.152;2022-08-11T08:14:55;98840.69;;;31.91;45.92
10176;BME280;18221;38.704;0.152;2022-08-11T08:17:45;98847.56;;;31.89;44.46
10176;BME280;18221;38.704;0.152;2022-08-11T08:20:22;98837.75;;;31.72;45.37
10176;BME280;18221;38.704;0.152;2022-08-11T08:22:57;98836.72;;;31.48;45.76
10176;BME280;18221;38.704;0.152;2022-08-11T08:25:38;98839.72;;;31.57;45.46
10176;BME280;18221;38.704;0.152;2022-08-11T08:28:13;98846.06;;;31.27;46.31
10176;BME280;18221;38.704;0.152;2022-08-11T08:30:42;98844.69;;;31.25;45.98
10176;BME280;18221;38.704;0.152;2022-08-11T08:33:24;98839.25;;;30.99;46.89
10176;BME280;18221;38.704;0.152;2022-08-11T08:36:01;98846.91;;;30.92;47.39
10176;BME280;18221;38.704;0.152;2022-08-11T08:38:50;98847.50;;;30.99;46.71
10176;BME280;18221;38.704;0.152;2022-08-11T08:41:27;98846.13;;;31.02;47.65
10176;BME280;18221;38.704;0.152;2022-08-11T08:44:06;98842.56;;;30.91;47.73
10176;BME280;18221;38.704;0.152;2022-08-11T08:46:49;98847.22;;;30.96;46.71
10176;BME280;18221;38.704;0.152;2022-08-11T08:49:38;98846.94;;;31.02;45.45
10176;BME280;18221;38.704;0.152;2022-08-11T08:52:17;98851.03;;;31.20;46.01
10176;BME280;18221;38.704;0.152;2022-08-11T08:54:56;98850.75;;;31.16;46.47
10176;BME280;18221;38.704;0.152;2022-08-11T08:57:34;98860.09;;;31.15;47.12
10176;BME280;18221;38.704;0.152;2022-08-11T09:00:06;98863.06;;;31.24;47.15
10176;BME280;18221;38.704;0.152;2022-08-11T09:02:35;98863.88;;;31.40;46.43
10176;BME280;18221;38.704;0.152;2022-08-11T09:05:05;98863.63;;;31.31;46.17
10176;BME280;18221;38.704;0.152;2022-08-11T09:07:34;98861.44;;;31.33;46.23
10176;BME280;18221;38.704;0.152;2022-08-11T09:10:04;98859.47;;;31.44;45.95
10176;BME280;18221;38.704;0.152;2022-08-11T09:12:39;98869.38;;;31.35;46.09
10176;BME280;18221;38.704;0.152;2022-08-11T09:15:12;98858.13;;;31.46;45.63
10176;BME280;18221;38.704;0.152;2022-08-11T09:17:45;98863.06;;;31.44;46.49
10176;BME280;18221;38.704;0.152;2022-08-11T09:20:23;98861.13;;;31.60;44.30
10176;BME280;18221;38.704;0.152;2022-08-11T09:23:00;98868.00;;;31.47;45.27
10176;BME280;18221;38.704;0.152;2022-08-11T09:25:50;98858.56;;;31.78;44.55
10176;BME280;18221;38.704;0.152;2022-08-11T09:28:42;98861.88;;;31.81;45.36
10176;BME280;18221;38.704;0.152;2022-08-11T09:31:13;98855.84;;;31.68;43.77
10176;BME280;18221;38.704;0.152;2022-08-11T09:33:43;98868.44;;;31.85;43.52
10176;BME280;18221;38.704;0.152;2022-08-11T09:36:13;98868.91;;;31.97;43.50
10176;BME280;18221;38.704;0.152;2022-08-11T09:39:00;98880.25;;;31.85;44.11
10176;BME280;18221;38.704;0.152;2022-08-11T09:41:47;98884.88;;;32.00;43.73
10176;BME280;18221;38.704;0.152;2022-08-11T09:44:17;98885.41;;;32.02;43.32
10176;BME280;18221;38.704;0.152;2022-08-11T09:47:04;98884.13;;;32.38;42.38
10176;BME280;18221;38.704;0.152;2022-08-11T09:49:36;98883.56;;;32.36;43.75
10176;BME280;18221;38.704;0.152;2022-08-11T09:52:08;98884.78;;;32.20;44.06
10176;BME280;18221;38.704;0.152;2022-08-11T09:54:43;98874.34;;;32.22;44.04
10176;BME280;18221;38.704;0.152;2022-08-11T09:57:16;98884.00;;;32.14;42.52
10176;BME280;18221;38.704;0.152;2022-08-11T10:00:07;98874.78;;;32.39;41.61
10176;BME280;18221;38.704;0.152;2022-08-11T10:02:42;98884.72;;;32.30;41.87
10176;BME280;18221;38.704;0.152;2022-08-11T10:05:16;98879.28;;;32.25;43.73
10176;BME280;18221;38.704;0.152;2022-08-11T10:08:04;98890.19;;;32.35;43.57
10176;BME280;18221;38.704;0.152;2022-08-11T10:10:35;98885.19;;;32.42;42.51
10176;BME280;18221;38.704;0.152;2022-08-11T10:13:12;98891.41;;;32.63;42.38
10176;BME280;18221;38.704;0.152;2022-08-11T10:15:47;98893.34;;;32.62;42.24
10176;BME280;18221;38.704;0.152;2022-08-11T10:18:28;98893.06;;;32.64;40.27
10176;BME280;18221;38.704;0.152;2022-08-11T10:21:24;98894.19;;;32.96;41.68
10176;BME280;18221;38.704;0.152;2022-08-11T10:23:58;98894.19;;;32.96;41.34
10176;BME280;18221;38.704;0.152;2022-08-11T10:26:46;98887.44;;;33.18;38.72
10176;BME280;18221;38.704;0.152;2022-08-11T10:29:26;98885.66;;;33.32;34.06
10176;BME280;18221;38.704;0.152;2022-08-11T10:32:21;98886.25;;;33.58;36.65
10176;BME280;18221;38.704;0.152;2022-08-11T10:35:10;98893.03;;;33.65;37.16
10176;BME280;18221;38.704;0.152;2022-08-11T10:37:42;98886.81;;;33.78;34.37
10176;BME280;18221;38.704;0.152;2022-08-11T10:40:27;98886.59;;;33.75;33.08
10176;BME280;18221;38.704;0.152;2022-08-11T10:43:02;98886.94;;;33.92;34.36
10176;BME280;18221;38.704;0.152;2022-08-11T10:45:51;98893.25;;;33.40;33.67
10176;BME280;18221;38.704;0.152;2022-08-11T10:48:38;98886.25;;;33.52;34.20
10176;BME280;18221;38.704;0.152;2022-08-11T10:51:07;98893.91;;;33.61;34.71
10176;BME280;18221;38.704;0.152;2022-08-11T10:53:45;98884.97;;;33.74;35.50
10176;BME280;18221;38.704;0.152;2022-08-11T10:56:35;98891.00;;;33.76;37.04
10176;BME280;18221;38.704;0.152;2022-08-11T10:59:27;98890.03;;;33.33;36.84
10176;BME280;18221;38.704;0.152;2022-08-11T11:01:59;98891.69;;;33.34;36.69
10176;BME280;18221;38.704;0.152;2022-08-11T11:04:37;98891.97;;;33.61;35.81
10176;BME280;18221;38.704;0.152;2022-08-11T11:07:17;98886.41;;;33.66;35.74
10176;BME280;18221;38.704;0.152;2022-08-11T11:09:50;98894.84;;;33.75;35.66
10176;BME280;18221;38.704;0.152;2022-08-11T11:12:42;98899.31;;;33.71;34.65
10176;BME280;18221;38.704;0.152;2022-08-11T11:15:31;98888.34;;;33.89;34.25
10176;BME280;18221;38.704;0.152;2022-08-11T11:18:23;98895.94;;;34.21;34.42
10176;BME280;18221;38.704;0.152;2022-08-11T11:20:57;98891.84;;;34.19;35.48
10176;BME280;18221;38.704;0.152;2022-08-11T11:23:32;98897.22;;;34.29;34.39
10176;BME280;18221;38.704;0.152;2022-08-11T11:26:44;98896.53;;;34.60;34.57
10176;BME280;18221;38.704;0.152;2022-08-11T11:29:41;98897.16;;;34.15;34.77
10176;BME280;18221;38.704;0.152;2022-08-11T11:32:23;98899.47;;;34.27;35.29
10176;BME280;18221;38.704;0.152;2022-08-11T11:35:19;98884.66;;;34.41;32.75
10176;BME280;18221;38.704;0.152;2022-08-11T11:37:56;98899.38;;;34.32;34.55
10176;BME280;18221;38.704;0.152;2022-08-11T11:40:27;98895.34;;;34.24;32.18
10176;BME280;18221;38.704;0.152;2022-08-11T11:42:58;98889.41;;;34.36;32.44
10176;BME280;18221;38.704;0.152;2022-08-11T11:45:28;98888.59;;;34.54;35.15
10176;BME280;18221;38.704;0.152;2022-08-11T11:47:59;98891.25;;;34.64;34.18
10176;BME280;18221;38.704;0.152;2022-08-11T11:50:30;98885.88;;;34.72;32.46
10176;BME280;18221;38.704;0.152;2022-08-11T11:53:05;98887.91;;;34.99;30.64
10176;BME280;18221;38.704;0.152;2022-08-11T11:55:36;98888.50;;;35.15;36.84
10176;BME280;18221;38.704;0.152;2022-08-11T11:58:05;98881.69;;;35.26;36.27
10176;BME280;18221;38.704;0.152;2022-08-11T12:00:52;98879.97;;;35.44;31.72
10176;BME280;18221;38.704;0.152;2022-08-11T12:03:39;98882.22;;;35.42;31.94
10176;BME280;18221;38.704;0.152;2022-08-11T12:06:12;98879.09;;;35.62;32.39
10176;BME280;18221;38.704;0.152;2022-08-11T12:08:43;98881.03;;;35.75;30.70
10176;BME280;18221;38.704;0.152;2022-08-11T12:11:16;98880.84;;;35.71;32.53
10176;BME280;18221;38.704;0.152;2022-08-11T12:14:05;98875.50;;;35.75;33.38
10176;BME280;18221;38.704;0.152;2022-08-11T12:16:36;98871.63;;;35.76;31.66
10176;BME280;18221;38.704;0.152;2022-08-11T12:19:08;98886.56;;;35.75;33.71
10176;BME280;18221;38.704;0.152;2022-08-11T12:21:39;98877.78;;;35.73;32.51
10176;BME280;18221;38.704;0.152;2022-08-11T12:24:33;98882.81;;;35.39;33.85
10176;BME280;18221;38.704;0.152;2022-08-11T12:27:20;98883.22;;;35.32;32.59
10176;BME280;18221;38.704;0.152;2022-08-11T12:29:57;98875.31;;;35.58;33.22
10176;BME280;18221;38.704;0.152;2022-08-11T12:32:29;98877.84;;;35.54;34.48
10176;BME280;18221;38.704;0.152;2022-08-11T12:34:58;98879.88;;;35.49;32.44
10176;BME280;18221;38.704;0.152;2022-08-11T12:37:31;98882.38;;;35.64;34.53
10176;BME280;18221;38.704;0.152;2022-08-11T12:40:06;98885.09;;;35.50;34.57
10176;BME280;18221;38.704;0.152;2022-08-11T12:42:54;98877.47;;;35.28;31.99
10176;BME280;18221;38.704;0.152;2022-08-11T12:45:43;98879.16;;;35.43;32.28
10176;BME280;18221;38.704;0.152;2022-08-11T12:48:16;98871.16;;;35.42;31.71
10176;BME280;18221;38.704;0.152;2022-08-11T12:51:06;98875.78;;;35.32;32.95
10176;BME280;18221;38.704;0.152;2022-08-11T12:53:57;98872.34;;;35.08;34.83
10176;BME280;18221;38.704;0.152;2022-08-11T12:56:37;98864.81;;;35.27;32.26
10176;BME280;18221;38.704;0.152;2022-08-11T12:59:24;98868.38;;;35.14;34.17
10176;BME280;18221;38.704;0.152;2022-08-11T13:02:14;98865.38;;;35.11;32.82
10176;BME280;18221;38.704;0.152;2022-08-11T13:05:00;98859.47;;;35.17;31.01
10176;BME280;18221;38.704;0.152;2022-08-11T13:07:31;98860.31;;;35.31;33.62
10176;BME280;18221;38.704;0.152;2022-08-11T13:10:03;98859.75;;;35.62;34.01
10176;BME280;18221;38.704;0.152;2022-08-11T13:12:34;98861.63;;;35.66;32.57
10176;BME280;18221;38.704;0.152;2022-08-11T13:15:17;98859.66;;;35.67;30.89
10176;BME280;18221;38.704;0.152;2022-08-11T13:17:48;98861.09;;;35.64;30.88
10176;BME280;18221;38.704;0.152;2022-08-11T13:20:20;98862.75;;;35.79;30.48
10176;BME280;18221;38.704;0.152;2022-08-11T13:22:51;98857.63;;;35.86;31.70
10176;BME280;18221;38.704;0.152;2022-08-11T13:25:23;98850.84;;;35.92;31.09
10176;BME280;18221;38.704;0.152;2022-08-11T13:27:57;98857.84;;;36.03;32.08
10176;BME280;18221;38.704;0.152;2022-08-11T13:30:29;98849.22;;;36.18;31.84
10176;BME280;18221;38.704;0.152;2022-08-11T13:33:16;98849.72;;;36.20;32.44
10176;BME280;18221;38.704;0.152;2022-08-11T13:35:46;98858.13;;;36.15;32.80
10176;BME280;18221;38.704;0.152;2022-08-11T13:38:17;98852.63;;;36.02;31.26
10176;BME280;18221;38.704;0.152;2022-08-11T13:40:48;98855.25;;;36.07;33.10
10176;BME280;18221;38.704;0.152;2022-08-11T13:43:20;98849.41;;;36.22;34.07
10176;BME280;18221;38.704;0.152;2022-08-11T13:45:51;98854.63;;;35.96;32.00
10176;BME280;18221;38.704;0.152;2022-08-11T13:48:41;98852.72;;;36.10;32.28
10176;BME280;18221;38.704;0.152;2022-08-11T13:51:10;98851.03;;;35.95;33.63
10176;BME280;18221;38.704;0.152;2022-08-11T13:54:02;98849.75;;;35.79;34.69
10176;BME280;18221;38.704;0.152;2022-08-11T13:56:32;98840.31;;;35.94;34.56
10176;BME280;18221;38.704;0.152;2022-08-11T13:59:04;98836.84;;;36.02;34.56
10176;BME280;18221;38.704;0.152;2022-08-11T14:01:38;98849.13;;;36.10;35.35
10176;BME280;18221;38.704;0.152;2022-08-11T14:04:11;98842.03;;;36.17;33.15
10176;BME280;18221;38.704;0.152;2022-08-11T14:06:47;98842.34;;;35.88;33.02
10176;BME280;18221;38.704;0.152;2022-08-11T14:09:25;98842.13;;;35.99;34.03
10176;BME280;18221;38.704;0.152;2022-08-11T14:11:58;98841.25;;;35.89;35.08
10176;BME280;18221;38.704;0.152;2022-08-11T14:14:55;98834.78;;;35.80;35.98
10176;BME280;18221;38.704;0.152;2022-08-11T14:17:31;98835.81;;;35.84;35.56
10176;BME280;18221;38.704;0.152;2022-08-11T14:20:07;98838.25;;;36.00;35.43
10176;BME280;18221;38.704;0.152;2022-08-11T14:22:40;98833.13;;;35.93;35.90
10176;BME280;18221;38.704;0.152;2022-08-11T14:25:10;98829.38;;;36.16;36.09
10176;BME280;18221;38.704;0.152;2022-08-11T14:27:43;98836.00;;;36.15;35.56
10176;BME280;18221;38.704;0.152;2022-08-11T14:30:16;98835.78;;;36.25;35.79
10176;BME280;18221;38.704;0.152;2022-08-11T14:32:59;98825.34;;;36.09;36.30
10176;BME280;18221;38.704;0.152;2022-08-11T14:35:30;98832.31;;;36.20;35.30
10176;BME280;18221;38.704;0.152;2022-08-11T14:37:58;98821.38;;;36.15;35.55
10176;BME280;18221;38.704;0.152;2022-08-11T14:40:26;98820.28;;;36.02;35.81
10176;BME280;18221;38.704;0.152;2022-08-11T14:43:13;98824.13;;;36.15;36.31
10176;BME280;18221;38.704;0.152;2022-08-11T14:46:00;98815.72;;;36.20;35.25
10176;BME280;18221;38.704;0.152;2022-08-11T14:48:46;98825.56;;;36.12;35.06
10176;BME280;18221;38.704;0.152;2022-08-11T14:51:16;98817.25;;;35.99;35.87
10176;BME280;18221;38.704;0.152;2022-08-11T14:53:45;98823.03;;;36.02;36.43
10176;BME280;18221;38.704;0.152;2022-08-11T14:56:13;98821.91;;;36.03;36.28
10176;BME280;18221;38.704;0.152;2022-08-11T14:59:02;98817.19;;;36.04;36.94
10176;BME280;18221;38.704;0.152;2022-08-11T15:01:32;98815.84;;;36.01;36.81
10176;BME280;18221;38.704;0.152;2022-08-11T15:04:20;98810.03;;;36.03;36.61
10176;BME280;18221;38.704;0.152;2022-08-11T15:06:51;98811.03;;;35.93;36.80
10176;BME280;18221;38.704;0.152;2022-08-11T15:09:22;98811.13;;;35.88;36.60
10176;BME280;18221;38.704;0.152;2022-08-11T15:11:50;98814.91;;;35.51;36.95
10176;BME280;18221;38.704;0.152;2022-08-11T15:14:43;98802.91;;;35.61;36.71
10176;BME280;18221;38.704;0.152;2022-08-11T15:17:46;98801.84;;;35.70;36.88
10176;BME280;18221;38.704;0.152;2022-08-11T15:20:19;98811.88;;;35.80;37.89
10176;BME280;18221;38.704;0.152;2022-08-11T15:23:05;98806.56;;;35.70;37.60
10176;BME280;18221;38.704;0.152;2022-08-11T15:25:56;98804.41;;;35.80;37.52